createdAt,value
2018-01-28T00:00:26.225Z,13.1
2018-01-28T00:01:26.262Z,12.6
2018-01-28T00:02:26.494Z,13
2018-01-28T00:03:25.976Z,12.9
2018-01-28T00:04:25.984Z,13
2018-01-28T00:05:25.834Z,12.7
2018-01-28T00:06:25.886Z,12.6
2018-01-28T00:07:25.752Z,13
2018-01-28T00:08:25.671Z,13
2018-01-28T00:09:25.535Z,13
2018-01-28T00:10:25.448Z,13.2
2018-01-28T00:11:25.387Z,13
2018-01-28T00:12:25.266Z,12.9
2018-01-28T00:13:25.510Z,12.6
2018-01-28T00:14:25.113Z,12.6
2018-01-28T00:15:25.407Z,12.8
2018-01-28T00:16:24.967Z,12.8
2018-01-28T00:17:24.902Z,13.1
2018-01-28T00:18:24.827Z,12.8
2018-01-28T00:19:24.809Z,12.6
2018-01-28T00:20:24.728Z,12.6
2018-01-28T00:21:24.677Z,12.5
2018-01-28T00:22:24.522Z,13.1
2018-01-28T00:23:24.403Z,13.1
2018-01-28T00:24:24.413Z,12.7
2018-01-28T00:25:24.281Z,12.8
2018-01-28T00:26:24.304Z,13.2
2018-01-28T00:27:24.129Z,12.5
2018-01-28T00:28:24.261Z,12.8
2018-01-28T00:29:24.046Z,13
2018-01-28T00:30:23.940Z,13
2018-01-28T00:31:23.771Z,13
2018-01-28T00:32:23.903Z,12.9
2018-01-28T00:33:23.633Z,12.9
2018-01-28T00:34:23.660Z,12.6
2018-01-28T00:35:23.667Z,13.2
2018-01-28T00:36:23.475Z,12.9
2018-01-28T00:37:23.340Z,12.7
2018-01-28T00:38:23.440Z,13
2018-01-28T00:39:23.397Z,12.6
2018-01-28T00:40:23.368Z,13
2018-01-28T00:41:23.156Z,12.6
2018-01-28T00:42:23.011Z,12.7
2018-01-28T00:43:22.977Z,12.6
2018-01-28T00:44:22.933Z,13.1
2018-01-28T00:45:22.878Z,13.1
2018-01-28T00:46:22.687Z,13
2018-01-28T00:47:22.723Z,12.8
2018-01-28T00:48:22.454Z,13.2
2018-01-28T00:49:22.595Z,12.6
2018-01-28T00:50:22.644Z,13.2
2018-01-28T00:51:22.316Z,13
2018-01-28T00:52:22.374Z,12.7
2018-01-28T00:53:22.063Z,12.7
2018-01-28T00:54:22.009Z,12.8
2018-01-28T00:55:21.976Z,12.6
2018-01-28T00:56:22.012Z,12.9
2018-01-28T00:57:21.900Z,12.9
2018-01-28T00:58:21.872Z,12.9
2018-01-28T00:59:21.693Z,12.5
2018-01-28T01:00:21.535Z,12.7
2018-01-28T01:01:21.530Z,13
2018-01-28T01:02:21.655Z,12.6
2018-01-28T01:03:21.345Z,12.6
2018-01-28T01:04:21.270Z,12.9
2018-01-28T01:05:21.243Z,13
2018-01-28T01:06:21.138Z,13.2
2018-01-28T01:07:21.147Z,13.1
2018-01-28T01:08:20.952Z,13.2
2018-01-28T01:09:21.040Z,12.5
2018-01-28T01:10:20.827Z,13.2
2018-01-28T01:11:20.778Z,12.7
2018-01-28T01:12:20.665Z,12.6
2018-01-28T01:13:20.642Z,12.6
2018-01-28T01:14:20.571Z,12.6
2018-01-28T01:15:20.407Z,13
2018-01-28T01:16:20.385Z,12.7
2018-01-28T01:17:20.175Z,13.1
2018-01-28T01:18:20.286Z,13.2
2018-01-28T01:19:20.093Z,12.7
2018-01-28T01:20:19.961Z,12.7
2018-01-28T01:21:19.972Z,12.4
2018-01-28T01:22:19.897Z,12.6
2018-01-28T01:23:19.893Z,13
2018-01-28T01:24:19.606Z,12.6
2018-01-28T01:25:19.527Z,12.6
2018-01-28T01:26:19.540Z,12.6
2018-01-28T01:27:19.490Z,12.6
2018-01-28T01:28:19.545Z,13.1
2018-01-28T01:29:19.243Z,13
2018-01-28T01:30:19.146Z,13.1
2018-01-28T01:31:19.431Z,12.5
2018-01-28T01:32:18.998Z,12.7
2018-01-28T01:33:19.047Z,12.6
2018-01-28T01:34:18.910Z,12.9
2018-01-28T01:35:18.947Z,13.2
2018-01-28T01:36:18.752Z,12.9
2018-01-28T01:37:18.652Z,13.1
2018-01-28T01:38:18.646Z,12.8
2018-01-28T01:39:18.518Z,13.1
2018-01-28T01:40:18.349Z,12.6
2018-01-28T01:41:18.312Z,13.1
2018-01-28T01:42:18.210Z,13.1
2018-01-28T01:43:18.365Z,13.2
2018-01-28T01:44:18.153Z,13.1
2018-01-28T01:45:18.125Z,13
2018-01-28T01:46:18.290Z,13.1
2018-01-28T01:47:17.919Z,13.1
2018-01-28T01:48:17.814Z,13.2
2018-01-28T01:49:17.642Z,12.5
2018-01-28T01:50:17.940Z,12.6
2018-01-28T01:51:17.483Z,12.8
2018-01-28T01:52:17.741Z,12.7
2018-01-28T01:53:17.343Z,12.6
2018-01-28T01:54:17.281Z,13
2018-01-28T01:55:17.166Z,12.7
2018-01-28T01:56:17.299Z,12.7
2018-01-28T01:57:17.013Z,12.6
2018-01-28T01:58:17.443Z,13.2
2018-01-28T01:59:16.871Z,13
2018-01-28T02:00:17.108Z,12.4
2018-01-28T02:01:16.737Z,12.9
2018-01-28T02:02:16.659Z,12.6
2018-01-28T02:03:16.688Z,12.7
2018-01-28T02:04:16.576Z,12.7
2018-01-28T02:05:16.427Z,13
2018-01-28T02:06:16.303Z,12.7
2018-01-28T02:07:16.432Z,13
2018-01-28T02:08:16.301Z,12.5
2018-01-28T02:09:16.134Z,12.7
2018-01-28T02:10:16.024Z,12.9
2018-01-28T02:11:16.027Z,12.8
2018-01-28T02:12:15.980Z,12.6
2018-01-28T02:13:15.754Z,12.9
2018-01-28T02:14:15.996Z,12.5
2018-01-28T02:15:15.614Z,12.7
2018-01-28T02:16:15.771Z,12.8
2018-01-28T02:17:15.568Z,13.2
2018-01-28T02:18:15.505Z,13.2
2018-01-28T02:19:15.660Z,13
2018-01-28T02:20:15.321Z,12.7
2018-01-28T02:21:15.166Z,13.2
2018-01-28T02:22:15.084Z,12.7
2018-01-28T02:23:15.086Z,13
2018-01-28T02:24:15.097Z,12.9
2018-01-28T02:25:14.937Z,12.6
2018-01-28T02:26:14.848Z,13
2018-01-28T02:27:14.913Z,13.2
2018-01-28T02:28:14.792Z,13.1
2018-01-28T02:29:14.588Z,12.8
2018-01-28T02:30:14.718Z,12.5
2018-01-28T02:31:14.486Z,13
2018-01-28T02:32:14.277Z,13.2
2018-01-28T02:33:14.216Z,12.4
2018-01-28T02:34:14.457Z,13.1
2018-01-28T02:35:14.115Z,13.2
2018-01-28T02:36:14.064Z,12.6
2018-01-28T02:37:14.193Z,12.6
2018-01-28T02:38:14.095Z,12.7
2018-01-28T02:39:14.051Z,12.6
2018-01-28T02:40:13.722Z,13.1
2018-01-28T02:41:13.846Z,12.7
2018-01-28T02:42:13.716Z,13.2
2018-01-28T02:43:13.483Z,12.7
2018-01-28T02:44:13.560Z,12.8
2018-01-28T02:45:13.354Z,13
2018-01-28T02:46:13.200Z,13
2018-01-28T02:47:13.398Z,12.7
2018-01-28T02:48:13.437Z,12.7
2018-01-28T02:49:12.956Z,12.9
2018-01-28T02:50:13.236Z,13.2
2018-01-28T02:51:12.775Z,13.2
2018-01-28T02:52:12.732Z,13
2018-01-28T02:53:12.728Z,13.1
2018-01-28T02:54:12.679Z,12.7
2018-01-28T02:55:12.469Z,13
2018-01-28T02:56:12.463Z,13.1
2018-01-28T02:57:12.319Z,12.5
2018-01-28T02:58:12.348Z,13
2018-01-28T02:59:12.390Z,13.2
2018-01-28T03:00:12.056Z,12.9
2018-01-28T03:01:12.184Z,12.7
2018-01-28T03:02:11.986Z,12.6
2018-01-28T03:03:11.968Z,12.5
2018-01-28T03:04:11.857Z,13.2
2018-01-28T03:05:11.907Z,13.2
2018-01-28T03:06:11.750Z,12.7
2018-01-28T03:07:11.511Z,12.9
2018-01-28T03:08:11.634Z,13
2018-01-28T03:09:11.438Z,12.7
2018-01-28T03:10:11.699Z,13
2018-01-28T03:11:11.410Z,13
2018-01-28T03:12:11.318Z,13.2
2018-01-28T03:13:11.143Z,12.7
2018-01-28T03:14:11.184Z,12.6
2018-01-28T03:15:11.024Z,12.9
2018-01-28T03:16:10.818Z,12.7
2018-01-28T03:17:11.109Z,13.2
2018-01-28T03:18:10.642Z,13.1
2018-01-28T03:19:10.650Z,12.8
2018-01-28T03:20:10.803Z,12.6
2018-01-28T03:21:10.531Z,13.1
2018-01-28T03:22:10.454Z,12.6
2018-01-28T03:23:10.395Z,12.8
2018-01-28T03:24:10.467Z,13.1
2018-01-28T03:25:10.185Z,12.6
2018-01-28T03:26:10.134Z,12.6
2018-01-28T03:27:10.078Z,12.7
2018-01-28T03:28:09.944Z,12.7
2018-01-28T03:29:09.831Z,13.2
2018-01-28T03:30:09.854Z,13
2018-01-28T03:31:10.208Z,13.1
2018-01-28T03:32:09.797Z,12.5
2018-01-28T03:33:09.462Z,13.2
2018-01-28T03:34:10.049Z,13.2
2018-01-28T03:35:09.325Z,12.9
2018-01-28T03:36:09.374Z,12.6
2018-01-28T03:37:09.173Z,12.8
2018-01-28T03:38:09.183Z,12.6
2018-01-28T03:39:09.086Z,12.8
2018-01-28T03:40:09.209Z,12.6
2018-01-28T03:41:08.875Z,13
2018-01-28T03:42:08.847Z,13.1
2018-01-28T03:43:08.883Z,12.5
2018-01-28T03:44:08.596Z,12.7
2018-01-28T03:45:08.584Z,12.6
2018-01-28T03:46:08.683Z,12.4
2018-01-28T03:47:08.403Z,12.9
2018-01-28T03:48:08.397Z,12.8
2018-01-28T03:49:08.293Z,12.9
2018-01-28T03:50:08.212Z,12.8
2018-01-28T03:51:08.257Z,13.2
2018-01-28T03:52:08.055Z,13.2
2018-01-28T03:53:08.208Z,12.9
2018-01-28T03:54:07.994Z,12.5
2018-01-28T03:55:07.824Z,12.7
2018-01-28T03:56:07.693Z,13.1
2018-01-28T03:57:07.589Z,12.5
2018-01-28T03:58:07.831Z,12.6
2018-01-28T03:59:07.533Z,12.8
2018-01-28T04:00:07.660Z,12.6
2018-01-28T04:01:07.523Z,12.6
2018-01-28T04:02:07.209Z,12.8
2018-01-28T04:03:07.145Z,12.8
2018-01-28T04:04:07.042Z,12.6
2018-01-28T04:05:06.986Z,13
2018-01-28T04:06:06.985Z,12.6
2018-01-28T04:07:06.877Z,13.2
2018-01-28T04:08:06.795Z,12.6
2018-01-28T04:09:06.771Z,12.6
2018-01-28T04:10:06.734Z,12.6
2018-01-28T04:11:06.557Z,12.6
2018-01-28T04:12:06.772Z,12.6
2018-01-28T04:13:06.491Z,13
2018-01-28T04:14:06.382Z,13
2018-01-28T04:15:06.270Z,12.7
2018-01-28T04:16:06.196Z,12.6
2018-01-28T04:17:06.234Z,13.1
2018-01-28T04:18:06.283Z,13.2
2018-01-28T04:19:05.841Z,12.9
2018-01-28T04:20:06.253Z,13.1
2018-01-28T04:21:05.800Z,12.6
2018-01-28T04:22:05.949Z,12.9
2018-01-28T04:23:05.619Z,12.6
2018-01-28T04:24:05.945Z,12.9
2018-01-28T04:25:05.497Z,13
2018-01-28T04:26:05.315Z,13
2018-01-28T04:27:05.259Z,12.5
2018-01-28T04:28:05.133Z,12.8
2018-01-28T04:29:05.260Z,13
2018-01-28T04:30:05.230Z,12.9
2018-01-28T04:31:05.022Z,13.1
2018-01-28T04:32:04.910Z,13.1
2018-01-28T04:33:04.776Z,13.2
2018-01-28T04:34:04.804Z,12.5
2018-01-28T04:35:04.624Z,12.7
2018-01-28T04:36:04.808Z,12.9
2018-01-28T04:37:04.631Z,13
2018-01-28T04:38:04.345Z,12.7
2018-01-28T04:39:04.415Z,12.8
2018-01-28T04:40:04.403Z,12.4
2018-01-28T04:41:04.253Z,13.2
2018-01-28T04:42:04.098Z,13
2018-01-28T04:43:03.952Z,12.9
2018-01-28T04:44:03.874Z,12.9
2018-01-28T04:45:04.001Z,13
2018-01-28T04:46:03.835Z,13
2018-01-28T04:47:03.783Z,13.1
2018-01-28T04:48:03.873Z,12.6
2018-01-28T04:49:03.608Z,13
2018-01-28T04:50:03.463Z,12.8
2018-01-28T04:51:03.938Z,12.7
2018-01-28T04:52:03.389Z,13.1
2018-01-28T04:53:03.163Z,13.1
2018-01-28T04:54:03.463Z,12.6
2018-01-28T04:55:03.006Z,12.9
2018-01-28T04:56:03.134Z,13.1
2018-01-28T04:57:03.280Z,12.9
2018-01-28T04:58:02.801Z,13.1
2018-01-28T04:59:02.842Z,12.7
2018-01-28T05:00:03.172Z,13
2018-01-28T05:01:02.624Z,12.4
2018-01-28T05:02:02.637Z,13
2018-01-28T05:03:02.466Z,12.7
2018-01-28T05:04:02.315Z,13.1
2018-01-28T05:05:02.243Z,12.6
2018-01-28T05:06:02.642Z,12.7
2018-01-28T05:07:02.366Z,12.9
2018-01-28T05:08:02.030Z,13.1
2018-01-28T05:09:02.023Z,12.9
2018-01-28T05:10:02.085Z,12.5
2018-01-28T05:11:01.837Z,12.9
2018-01-28T05:12:01.758Z,12.6
2018-01-28T05:13:01.645Z,12.8
2018-01-28T05:14:02.129Z,12.7
2018-01-28T05:15:01.451Z,12.7
2018-01-28T05:16:01.394Z,12.9
2018-01-28T05:17:01.393Z,12.6
2018-01-28T05:18:01.517Z,12.6
2018-01-28T05:19:01.121Z,12.8
2018-01-28T05:20:01.186Z,13
2018-01-28T05:21:01.005Z,13.1
2018-01-28T05:22:01.112Z,12.6
2018-01-28T05:23:01.297Z,12.5
2018-01-28T05:24:00.906Z,12.5
2018-01-28T05:25:00.685Z,13
2018-01-28T05:26:00.682Z,13.1
2018-01-28T05:27:00.496Z,12.5
2018-01-28T05:28:00.519Z,13.1
2018-01-28T05:29:00.779Z,13
2018-01-28T05:30:00.313Z,13.1
2018-01-28T05:31:00.557Z,12.7
2018-01-28T05:32:00.154Z,13.1
2018-01-28T05:33:00.173Z,12.6
2018-01-28T05:34:00.416Z,12.6
2018-01-28T05:34:59.979Z,13.2
2018-01-28T05:36:00.051Z,12.8
2018-01-28T05:36:59.978Z,13
2018-01-28T05:37:59.889Z,12.4
2018-01-28T05:38:59.680Z,12.9
2018-01-28T05:39:59.746Z,13
2018-01-28T05:40:59.564Z,12.7
2018-01-28T05:41:59.575Z,12.9
2018-01-28T05:42:59.479Z,12.5
2018-01-28T05:43:59.410Z,12.9
2018-01-28T05:44:59.303Z,12.6
2018-01-28T05:45:59.302Z,13.1
2018-01-28T05:46:59.125Z,13.1
2018-01-28T05:47:59.249Z,13
2018-01-28T05:48:58.976Z,13.1
2018-01-28T05:49:59.045Z,12.6
2018-01-28T05:50:59.252Z,13.1
2018-01-28T05:51:58.908Z,12.8
2018-01-28T05:52:59.140Z,12.9
2018-01-28T05:53:58.741Z,13.1
2018-01-28T05:54:58.875Z,12.7
2018-01-28T05:55:58.489Z,13.1
2018-01-28T05:56:58.462Z,12.6
2018-01-28T05:57:58.461Z,13.2
2018-01-28T05:58:58.327Z,12.5
2018-01-28T05:59:58.225Z,13
2018-01-28T06:00:58.193Z,12.9
2018-01-28T06:01:58.098Z,13.1
2018-01-28T06:02:58.122Z,12.6
2018-01-28T06:03:58.139Z,13.1
2018-01-28T06:04:57.863Z,12.6
2018-01-28T06:05:58.006Z,12.7
2018-01-28T06:06:57.900Z,13.2
2018-01-28T06:07:57.693Z,13.2
2018-01-28T06:08:57.606Z,12.9
2018-01-28T06:09:57.552Z,13.1
2018-01-28T06:10:57.727Z,12.5
2018-01-28T06:11:57.875Z,13.1
2018-01-28T06:12:57.591Z,13.2
2018-01-28T06:13:57.444Z,12.8
2018-01-28T06:14:57.195Z,12.6
2018-01-28T06:15:57.145Z,13
2018-01-28T06:16:57.155Z,12.6
2018-01-28T06:17:57.440Z,12.6
2018-01-28T06:18:56.932Z,12.6
2018-01-28T06:19:56.948Z,13.2
2018-01-28T06:20:56.901Z,12.7
2018-01-28T06:21:56.826Z,12.9
2018-01-28T06:22:56.709Z,13.1
2018-01-28T06:23:56.587Z,13.2
2018-01-28T06:24:56.620Z,12.8
2018-01-28T06:25:56.441Z,12.8
2018-01-28T06:26:56.545Z,13.4
2018-01-28T06:27:56.360Z,13.1
2018-01-28T06:28:56.536Z,13.3
2018-01-28T06:29:56.255Z,13.4
2018-01-28T06:30:56.150Z,13.8
2018-01-28T06:31:55.999Z,13.6
2018-01-28T06:32:55.951Z,13.5
2018-01-28T06:33:55.895Z,13.8
2018-01-28T06:34:55.800Z,14.1
2018-01-28T06:35:56.223Z,14.5
2018-01-28T06:36:55.931Z,14.2
2018-01-28T06:37:55.872Z,13.8
2018-01-28T06:38:55.889Z,14.1
2018-01-28T06:39:55.846Z,14.5
2018-01-28T06:40:55.395Z,14.6
2018-01-28T06:41:55.729Z,14.6
2018-01-28T06:42:55.232Z,14.6
2018-01-28T06:43:55.248Z,14
2018-01-28T06:44:55.205Z,13.8
2018-01-28T06:45:55.164Z,14.3
2018-01-28T06:46:55.043Z,14.6
2018-01-28T06:47:55.380Z,14.1
2018-01-28T06:48:54.933Z,14.7
2018-01-28T06:49:55.003Z,14.7
2018-01-28T06:50:54.932Z,14.7
2018-01-28T06:51:54.721Z,14.4
2018-01-28T06:52:54.699Z,13.9
2018-01-28T06:53:54.556Z,14.2
2018-01-28T06:54:54.607Z,14
2018-01-28T06:55:54.512Z,14.5
2018-01-28T06:56:54.320Z,14.3
2018-01-28T06:57:54.321Z,14
2018-01-28T06:58:54.215Z,14
2018-01-28T06:59:54.433Z,13.8
2018-01-28T07:00:53.998Z,14.4
2018-01-28T07:01:54.054Z,14
2018-01-28T07:02:53.872Z,14.6
2018-01-28T07:03:53.917Z,14.3
2018-01-28T07:04:53.824Z,14.7
2018-01-28T07:05:53.837Z,14.3
2018-01-28T07:06:53.651Z,14.2
2018-01-28T07:07:53.536Z,14.6
2018-01-28T07:08:53.655Z,14.7
2018-01-28T07:09:53.397Z,14
2018-01-28T07:10:53.306Z,14.5
2018-01-28T07:11:53.904Z,14.4
2018-01-28T07:12:53.261Z,14
2018-01-28T07:13:53.505Z,14.2
2018-01-28T07:14:53.219Z,14.4
2018-01-28T07:15:53.226Z,14
2018-01-28T07:16:52.962Z,14
2018-01-28T07:17:52.892Z,14.5
2018-01-28T07:18:52.776Z,14.4
2018-01-28T07:19:52.700Z,14.1
2018-01-28T07:20:52.732Z,14.2
2018-01-28T07:21:52.819Z,14.2
2018-01-28T07:22:52.456Z,14.4
2018-01-28T07:23:52.596Z,14.4
2018-01-28T07:24:52.410Z,14.2
2018-01-28T07:25:52.292Z,14.3
2018-01-28T07:26:52.297Z,14.5
2018-01-28T07:27:52.318Z,14.1
2018-01-28T07:28:52.257Z,14.7
2018-01-28T07:29:51.997Z,14.2
2018-01-28T07:30:51.964Z,14.4
2018-01-28T07:31:51.955Z,14.1
2018-01-28T07:32:52.095Z,14.1
2018-01-28T07:33:51.792Z,14.1
2018-01-28T07:34:51.716Z,14.1
2018-01-28T07:35:51.653Z,14.4
2018-01-28T07:36:51.625Z,14.7
2018-01-28T07:37:51.541Z,14.6
2018-01-28T07:38:51.792Z,13.8
2018-01-28T07:39:51.285Z,14.1
2018-01-28T07:40:51.420Z,14.7
2018-01-28T07:41:51.261Z,14.4
2018-01-28T07:42:51.128Z,14.7
2018-01-28T07:43:51.091Z,14.1
2018-01-28T07:44:51.106Z,13.8
2018-01-28T07:45:50.927Z,14.5
2018-01-28T07:46:51.221Z,13.9
2018-01-28T07:47:50.982Z,14.1
2018-01-28T07:48:50.778Z,14.5
2018-01-28T07:49:50.737Z,14.2
2018-01-28T07:50:50.803Z,14.4
2018-01-28T07:51:50.655Z,14
2018-01-28T07:52:50.512Z,14.5
2018-01-28T07:53:50.471Z,14.2
2018-01-28T07:54:50.507Z,14.7
2018-01-28T07:55:50.452Z,14.5
2018-01-28T07:56:50.474Z,14.1
2018-01-28T07:57:50.052Z,14.3
2018-01-28T07:58:50.008Z,14
2018-01-28T07:59:50.012Z,14.4
2018-01-28T08:00:49.850Z,14.2
2018-01-28T08:01:49.820Z,14.3
2018-01-28T08:02:49.899Z,14.1
2018-01-28T08:03:49.799Z,14.5
2018-01-28T08:04:49.694Z,13.8
2018-01-28T08:05:49.499Z,14.4
2018-01-28T08:06:49.502Z,13.8
2018-01-28T08:07:49.360Z,14
2018-01-28T08:08:49.443Z,14.7
2018-01-28T08:09:49.234Z,14.2
2018-01-28T08:10:49.264Z,14.1
2018-01-28T08:11:49.159Z,14.5
2018-01-28T08:12:49.184Z,14.2
2018-01-28T08:13:49.139Z,14.4
2018-01-28T08:14:48.951Z,14
2018-01-28T08:15:48.952Z,14.3
2018-01-28T08:16:48.940Z,14.4
2018-01-28T08:17:48.722Z,14.1
2018-01-28T08:18:48.712Z,14.5
2018-01-28T08:19:48.665Z,14.2
2018-01-28T08:20:48.464Z,14.3
2018-01-28T08:21:48.703Z,14.2
2018-01-28T08:22:48.404Z,14
2018-01-28T08:23:48.445Z,14.1
2018-01-28T08:24:48.295Z,14.3
2018-01-28T08:25:48.212Z,13.8
2018-01-28T08:26:48.359Z,14.1
2018-01-28T08:27:47.969Z,14.2
2018-01-28T08:28:48.294Z,14.1
2018-01-28T08:29:47.854Z,14.2
2018-01-28T08:30:48.009Z,14.5
2018-01-28T08:31:47.838Z,14
2018-01-28T08:32:47.666Z,14.1
2018-01-28T08:33:47.581Z,14.4
2018-01-28T08:34:47.570Z,14.4
2018-01-28T08:35:47.500Z,14.2
2018-01-28T08:36:47.379Z,14
2018-01-28T08:37:47.400Z,14.4
2018-01-28T08:38:47.523Z,14.1
2018-01-28T08:39:47.223Z,14.4
2018-01-28T08:40:47.306Z,14.2
2018-01-28T08:41:47.141Z,14.3
2018-01-28T08:42:47.148Z,14
2018-01-28T08:43:46.953Z,13.9
2018-01-28T08:44:46.966Z,14.5
2018-01-28T08:45:46.924Z,14.7
2018-01-28T08:46:46.737Z,14
2018-01-28T08:47:46.617Z,13.8
2018-01-28T08:48:46.634Z,14.4
2018-01-28T08:49:46.870Z,13.9
2018-01-28T08:50:46.464Z,14.2
2018-01-28T08:51:46.302Z,14.5
2018-01-28T08:52:46.276Z,14.4
2018-01-28T08:53:46.180Z,14.4
2018-01-28T08:54:46.490Z,14.2
2018-01-28T08:55:46.207Z,14
2018-01-28T08:56:46.424Z,14
2018-01-28T08:57:45.923Z,14.6
2018-01-28T08:58:45.837Z,14.1
2018-01-28T09:00:18.156Z,14.3
2018-01-28T09:00:45.708Z,14.7
2018-01-28T09:01:45.595Z,14.4
2018-01-28T09:02:45.606Z,14.1
2018-01-28T09:03:45.532Z,14.3
2018-01-28T09:04:45.425Z,14.3
2018-01-28T09:05:45.432Z,14.1
2018-01-28T09:06:45.375Z,14.7
2018-01-28T09:07:45.332Z,14.1
2018-01-28T09:08:45.066Z,14
2018-01-28T09:09:45.107Z,14.4
2018-01-28T09:10:45.019Z,14.5
2018-01-28T09:11:44.956Z,14.4
2018-01-28T09:12:44.856Z,14
2018-01-28T09:13:44.820Z,14.1
2018-01-28T09:14:44.869Z,14.4
2018-01-28T09:15:44.985Z,14.7
2018-01-28T09:16:44.765Z,14.5
2018-01-28T09:17:44.540Z,14.3
2018-01-28T09:18:44.348Z,14.5
2018-01-28T09:19:44.223Z,14.2
2018-01-28T09:20:44.241Z,14.4
2018-01-28T09:21:44.061Z,14.4
2018-01-28T09:22:44.096Z,14.2
2018-01-28T09:23:44.081Z,14.6
2018-01-28T09:24:43.820Z,13.9
2018-01-28T09:25:43.820Z,14.7
2018-01-28T09:26:44.013Z,14.5
2018-01-28T09:27:43.725Z,13.9
2018-01-28T09:28:43.784Z,14.2
2018-01-28T09:29:43.431Z,13.9
2018-01-28T09:30:43.644Z,14.3
2018-01-28T09:31:43.257Z,14.2
2018-01-28T09:32:43.193Z,14.7
2018-01-28T09:33:43.370Z,14
2018-01-28T09:34:43.094Z,14.5
2018-01-28T09:35:43.224Z,14.1
2018-01-28T09:36:42.861Z,14
2018-01-28T09:37:42.827Z,14.1
2018-01-28T09:38:42.968Z,14.4
2018-01-28T09:39:42.705Z,14.3
2018-01-28T09:40:42.647Z,14.2
2018-01-28T09:41:42.775Z,14
2018-01-28T09:42:42.496Z,14.2
2018-01-28T09:43:42.331Z,14.1
2018-01-28T09:44:42.342Z,14.6
2018-01-28T09:45:42.365Z,14.2
2018-01-28T09:46:42.151Z,14.4
2018-01-28T09:47:42.095Z,14.4
2018-01-28T09:48:42.047Z,14.2
2018-01-28T09:49:41.914Z,14.2
2018-01-28T09:50:41.836Z,13.9
2018-01-28T09:51:41.780Z,14
2018-01-28T09:52:41.722Z,14
2018-01-28T09:53:41.645Z,14
2018-01-28T09:54:41.615Z,14.1
2018-01-28T09:55:41.554Z,14.1
2018-01-28T09:56:41.665Z,14.4
2018-01-28T09:57:41.476Z,14.6
2018-01-28T09:58:41.152Z,14.3
2018-01-28T09:59:41.155Z,14.7
2018-01-28T10:00:40.989Z,14.4
2018-01-28T10:01:41.042Z,14
2018-01-28T10:02:41.182Z,14.6
2018-01-28T10:03:40.867Z,14.7
2018-01-28T10:04:40.757Z,13.8
2018-01-28T10:05:40.781Z,14.6
2018-01-28T10:06:40.586Z,14.4
2018-01-28T10:07:41.078Z,14.7
2018-01-28T10:08:40.624Z,14.1
2018-01-28T10:09:40.323Z,14
2018-01-28T10:10:40.168Z,14.4
2018-01-28T10:11:40.419Z,14
2018-01-28T10:12:40.128Z,14.5
2018-01-28T10:13:40.091Z,14.1
2018-01-28T10:14:39.983Z,14.7
2018-01-28T10:15:40.130Z,14
2018-01-28T10:16:39.739Z,14.7
2018-01-28T10:17:39.677Z,14.4
2018-01-28T10:18:39.586Z,14.3
2018-01-28T10:19:39.837Z,14.8
2018-01-28T10:20:39.594Z,14.1
2018-01-28T10:21:39.395Z,14
2018-01-28T10:22:39.550Z,14.3
2018-01-28T10:23:39.471Z,14.4
2018-01-28T10:24:39.333Z,14.6
2018-01-28T10:25:39.308Z,14.1
2018-01-28T10:26:39.015Z,14.1
2018-01-28T10:27:38.924Z,14.4
2018-01-28T10:28:38.970Z,14.2
2018-01-28T10:29:38.768Z,14.6
2018-01-28T10:30:38.744Z,14
2018-01-28T10:31:38.540Z,14.6
2018-01-28T10:32:38.912Z,14.1
2018-01-28T10:33:38.482Z,13.8
2018-01-28T10:34:38.303Z,14.7
2018-01-28T10:35:38.262Z,14.6
2018-01-28T10:36:38.258Z,14.4
2018-01-28T10:37:38.148Z,14
2018-01-28T10:38:37.973Z,14.2
2018-01-28T10:39:38.588Z,13.9
2018-01-28T10:40:38.116Z,14.7
2018-01-28T10:41:37.867Z,14.7
2018-01-28T10:42:37.983Z,14.5
2018-01-28T10:43:37.898Z,14.4
2018-01-28T10:44:37.715Z,14.1
2018-01-28T10:45:37.602Z,14.2
2018-01-28T10:46:37.396Z,14.2
2018-01-28T10:47:37.396Z,13.8
2018-01-28T10:48:37.251Z,14.4
2018-01-28T10:49:37.265Z,14.1
2018-01-28T10:50:37.033Z,14.6
2018-01-28T10:51:37.406Z,14.2
2018-01-28T10:52:36.905Z,14.4
2018-01-28T10:53:36.821Z,14.5
2018-01-28T10:54:36.864Z,14.7
2018-01-28T10:55:36.646Z,14
2018-01-28T10:56:36.737Z,14.4
2018-01-28T10:57:36.545Z,14.5
2018-01-28T10:58:36.535Z,13.9
2018-01-28T10:59:36.364Z,14.3
2018-01-28T11:00:36.249Z,14.1
2018-01-28T11:01:36.381Z,13.9
2018-01-28T11:02:36.210Z,14
2018-01-28T11:03:36.052Z,14
2018-01-28T11:04:35.994Z,14.7
2018-01-28T11:05:35.955Z,14.2
2018-01-28T11:06:35.990Z,14.3
2018-01-28T11:07:35.723Z,14
2018-01-28T11:08:35.658Z,14.7
2018-01-28T11:09:35.537Z,14.2
2018-01-28T11:10:35.670Z,14.4
2018-01-28T11:11:35.565Z,14.1
2018-01-28T11:12:35.491Z,14.2
2018-01-28T11:13:35.367Z,14.6
2018-01-28T11:14:35.147Z,14.1
2018-01-28T11:15:35.460Z,14.3
2018-01-28T11:16:35.022Z,14.7
2018-01-28T11:17:35.061Z,14
2018-01-28T11:18:34.949Z,14
2018-01-28T11:19:34.911Z,14.1
2018-01-28T11:20:34.713Z,14.7
2018-01-28T11:21:34.989Z,13.8
2018-01-28T11:22:34.801Z,14.7
2018-01-28T11:23:34.485Z,14.4
2018-01-28T11:24:34.479Z,14.4
2018-01-28T11:25:34.332Z,14.5
2018-01-28T11:26:34.323Z,14.7
2018-01-28T11:27:34.623Z,14
2018-01-28T11:28:34.439Z,14
2018-01-28T11:29:34.100Z,13.9
2018-01-28T11:30:33.984Z,14.5
2018-01-28T11:31:33.911Z,14.6
2018-01-28T11:32:34.122Z,14.1
2018-01-28T11:33:33.656Z,14.7
2018-01-28T11:34:33.628Z,14.3
2018-01-28T11:35:33.525Z,14.7
2018-01-28T11:36:33.556Z,14.2
2018-01-28T11:37:33.528Z,14.7
2018-01-28T11:38:33.263Z,14.4
2018-01-28T11:39:33.572Z,14.3
2018-01-28T11:40:33.131Z,14.6
2018-01-28T11:41:33.214Z,14.2
2018-01-28T11:42:33.003Z,14.7
2018-01-28T11:43:33.008Z,13.9
2018-01-28T11:44:33.240Z,14.6
2018-01-28T11:45:32.914Z,14.4
2018-01-28T11:46:32.856Z,14.3
2018-01-28T11:47:32.776Z,13.8
2018-01-28T11:48:32.664Z,14.2
2018-01-28T11:49:32.686Z,14.1
2018-01-28T11:50:32.430Z,14
2018-01-28T11:51:32.574Z,14.4
2018-01-28T11:52:32.426Z,14
2018-01-28T11:53:32.455Z,14.6
2018-01-28T11:54:32.201Z,14.6
2018-01-28T11:55:32.264Z,13.8
2018-01-28T11:56:32.231Z,14
2018-01-28T11:57:31.969Z,14.1
2018-01-28T11:58:32.138Z,14
2018-01-28T11:59:31.907Z,14.6
2018-01-28T12:00:31.911Z,14.4
2018-01-28T12:01:31.851Z,14.1
2018-01-28T12:02:31.724Z,14.1
2018-01-28T12:03:31.595Z,14.6
2018-01-28T12:04:31.963Z,14.1
2018-01-28T12:05:31.581Z,14.2
2018-01-28T12:06:31.477Z,14.4
2018-01-28T12:07:31.374Z,14.4
2018-01-28T12:08:31.325Z,14.4
2018-01-28T12:09:31.295Z,14.4
2018-01-28T12:10:31.418Z,14.6
2018-01-28T12:11:31.238Z,14.6
2018-01-28T12:12:31.028Z,13.8
2018-01-28T12:13:31.172Z,13.8
2018-01-28T12:14:30.777Z,14
2018-01-28T12:15:30.802Z,14.2
2018-01-28T12:16:30.937Z,13.9
2018-01-28T12:17:30.691Z,14.2
2018-01-28T12:18:30.517Z,14
2018-01-28T12:19:30.767Z,14.4
2018-01-28T12:20:30.363Z,14
2018-01-28T12:21:30.502Z,14.5
2018-01-28T12:22:30.217Z,14.5
2018-01-28T12:23:30.249Z,14.7
2018-01-28T12:24:30.121Z,14.1
2018-01-28T12:25:30.328Z,14
2018-01-28T12:26:30.447Z,14
2018-01-28T12:27:30.004Z,14.6
2018-01-28T12:28:29.963Z,14.5
2018-01-28T12:29:30.044Z,14.5
2018-01-28T12:30:29.812Z,14.5
2018-01-28T12:31:29.605Z,14.1
2018-01-28T12:32:29.821Z,14.2
2018-01-28T12:33:29.923Z,14
2018-01-28T12:34:29.409Z,14.4
2018-01-28T12:35:29.369Z,14.6
2018-01-28T12:36:29.271Z,14
2018-01-28T12:37:29.223Z,14.2
2018-01-28T12:38:29.443Z,14
2018-01-28T12:39:29.373Z,14
2018-01-28T12:40:29.107Z,14.4
2018-01-28T12:41:28.918Z,14.6
2018-01-28T12:42:29.332Z,14.7
2018-01-28T12:43:28.858Z,14.7
2018-01-28T12:44:28.917Z,14.1
2018-01-28T12:45:28.648Z,14.3
2018-01-28T12:46:28.605Z,13.8
2018-01-28T12:47:28.745Z,14.7
2018-01-28T12:48:28.566Z,13.9
2018-01-28T12:49:28.380Z,14.7
2018-01-28T12:50:28.378Z,14.5
2018-01-28T12:51:28.305Z,14
2018-01-28T12:52:28.330Z,14.5
2018-01-28T12:53:28.112Z,14.4
2018-01-28T12:54:28.214Z,14.2
2018-01-28T12:55:28.027Z,14.5
2018-01-28T12:56:28.009Z,14
2018-01-28T12:57:27.840Z,14.1
2018-01-28T12:58:27.756Z,14.1
2018-01-28T12:59:27.761Z,14
2018-01-28T13:00:27.967Z,13.2
2018-01-28T13:01:27.649Z,13.2
2018-01-28T13:02:27.611Z,13.4
2018-01-28T13:03:27.564Z,13.2
2018-01-28T13:04:27.377Z,14.1
2018-01-28T13:05:27.310Z,14.2
2018-01-28T13:06:27.294Z,14.6
2018-01-28T13:07:27.256Z,14.3
2018-01-28T13:08:27.220Z,14
2018-01-28T13:09:27.184Z,13.9
2018-01-28T13:10:26.925Z,14.1
2018-01-28T13:11:27.221Z,14.3
2018-01-28T13:12:26.889Z,14.2
2018-01-28T13:13:27.091Z,14.3
2018-01-28T13:14:26.832Z,14.5
2018-01-28T13:15:26.762Z,14.4
2018-01-28T13:16:26.770Z,14.3
2018-01-28T13:17:26.459Z,14.2
2018-01-28T13:18:26.373Z,14.3
2018-01-28T13:19:26.445Z,14.1
2018-01-28T13:20:26.254Z,14.2
2018-01-28T13:21:26.166Z,14.2
2018-01-28T13:22:26.133Z,14.7
2018-01-28T13:23:26.020Z,14
2018-01-28T13:24:26.617Z,14.2
2018-01-28T13:25:26.043Z,14